createdAt,value
2019-03-03T00:01:51.905Z,4.37
2019-03-03T00:04:21.325Z,3.97
2019-03-03T00:06:50.744Z,3.53
2019-03-03T00:09:20.118Z,3.87
2019-03-03T00:11:52.368Z,3.90
2019-03-03T00:14:21.923Z,3.47
2019-03-03T00:16:51.937Z,3.60
2019-03-03T00:19:22.163Z,3.80
2019-03-03T00:21:51.669Z,3.27
2019-03-03T00:24:20.957Z,3.43
2019-03-03T00:26:51.686Z,3.40
2019-03-03T00:29:21.252Z,2.77
2019-03-03T00:31:50.420Z,2.77
2019-03-03T00:34:19.689Z,3.13
2019-03-03T00:37:06.509Z,2.90
2019-03-03T00:39:49.388Z,3.63
2019-03-03T00:42:28.039Z,2.70
2019-03-03T00:45:07.990Z,3.23
2019-03-03T00:47:59.027Z,2.60
2019-03-03T00:50:37.622Z,2.57
2019-03-03T00:53:18.645Z,2.73
2019-03-03T00:56:03.410Z,2.57
2019-03-03T00:58:50.941Z,3.17
2019-03-03T01:01:40.288Z,2.30
2019-03-03T01:04:32.519Z,2.80
2019-03-03T01:07:10.826Z,3.23
2019-03-03T01:09:50.343Z,2.67
2019-03-03T01:12:28.579Z,2.97
2019-03-03T01:15:13.255Z,2.33
2019-03-03T01:17:57.427Z,2.53
2019-03-03T01:20:57.441Z,2.83
2019-03-03T01:23:45.182Z,3.80
2019-03-03T01:26:14.528Z,2.83
2019-03-03T01:28:50.342Z,2.83
2019-03-03T01:31:19.572Z,2.77
2019-03-03T01:33:48.952Z,2.13
2019-03-03T01:36:18.458Z,2.73
2019-03-03T01:38:47.737Z,2.90
2019-03-03T01:41:16.928Z,3.40
2019-03-03T01:43:46.470Z,3.30
2019-03-03T01:46:16.591Z,3.23
2019-03-03T01:48:45.849Z,3.10
2019-03-03T01:51:15.154Z,2.70
2019-03-03T01:53:44.476Z,2.90
2019-03-03T01:56:13.699Z,3.37
2019-03-03T01:58:42.995Z,3.30
2019-03-03T02:01:15.048Z,3.17
2019-03-03T02:03:44.498Z,3.23
2019-03-03T02:06:16.280Z,3.27
2019-03-03T02:08:45.528Z,2.93
2019-03-03T02:11:16.266Z,2.63
2019-03-03T02:13:45.824Z,3.20
2019-03-03T02:16:15.268Z,2.80
2019-03-03T02:18:44.533Z,3.10
2019-03-03T02:21:14.130Z,2.43
2019-03-03T02:23:44.071Z,2.67
2019-03-03T02:26:13.804Z,3.20
2019-03-03T02:28:43.373Z,3.03
2019-03-03T02:31:30.829Z,2.80
2019-03-03T02:34:00.292Z,3.10
2019-03-03T02:36:32.763Z,4.13
2019-03-03T02:39:01.933Z,3.70
2019-03-03T02:41:31.121Z,3.33
2019-03-03T02:44:00.561Z,3.30
2019-03-03T02:46:29.845Z,4.67
2019-03-03T02:48:59.180Z,3.67
2019-03-03T02:51:28.710Z,3.80
2019-03-03T02:53:58.035Z,3.77
2019-03-03T02:56:27.487Z,3.33
2019-03-03T02:58:56.674Z,3.53
2019-03-03T03:01:34.100Z,3.17
2019-03-03T03:04:03.397Z,3.40
2019-03-03T03:06:49.378Z,3.40
2019-03-03T03:09:27.215Z,2.97
2019-03-03T03:12:18.484Z,3.57
2019-03-03T03:15:03.350Z,4.07
2019-03-03T03:17:51.429Z,3.53
2019-03-03T03:20:38.268Z,3.57
2019-03-03T03:23:30.985Z,3.90
2019-03-03T03:26:17.899Z,3.60
2019-03-03T03:32:15.084Z,3.27
2019-03-03T03:34:49.734Z,3.27
2019-03-03T03:37:42.011Z,3.43
2019-03-03T03:40:22.520Z,4.47
2019-03-03T03:43:10.712Z,4.13
2019-03-03T03:45:58.890Z,3.50
2019-03-03T03:48:49.943Z,3.73
2019-03-03T03:51:40.416Z,4.73
2019-03-03T03:54:17.938Z,3.83
2019-03-03T03:57:04.720Z,3.80
2019-03-03T03:59:41.356Z,4.60
2019-03-03T04:02:35.291Z,4.23
2019-03-03T04:05:17.433Z,4.27
2019-03-03T04:08:02.880Z,4.13
2019-03-03T04:10:59.804Z,4.17
2019-03-03T04:13:46.456Z,3.90
2019-03-03T04:16:46.518Z,3.50
2019-03-03T04:19:49.917Z,3.47
2019-03-03T04:22:40.736Z,3.70
2019-03-03T04:25:41.169Z,4.00
2019-03-03T04:28:29.282Z,3.80
2019-03-03T04:31:07.719Z,3.93
2019-03-03T04:33:42.102Z,4.23
2019-03-03T04:36:30.307Z,3.90
2019-03-03T04:39:18.461Z,3.30
2019-03-03T04:41:56.484Z,3.60
2019-03-03T04:44:36.657Z,3.47
2019-03-03T04:47:11.138Z,4.03
2019-03-03T04:50:02.333Z,4.07
2019-03-03T04:52:38.833Z,4.37
2019-03-03T04:55:24.485Z,3.20
2019-03-03T04:58:14.064Z,3.17
2019-03-03T05:01:01.073Z,3.20
2019-03-03T05:03:52.111Z,3.73
2019-03-03T05:06:30.630Z,3.00
2019-03-03T05:09:14.052Z,3.10
2019-03-03T05:12:47.604Z,3.63
2019-03-03T05:15:35.364Z,4.17
2019-03-03T05:18:32.647Z,3.73
2019-03-03T05:21:01.766Z,2.70
2019-03-03T05:23:32.172Z,3.57
2019-03-03T05:26:01.383Z,3.20
2019-03-03T05:28:32.871Z,2.80
2019-03-03T05:31:02.125Z,3.53
2019-03-03T05:33:31.440Z,3.93
2019-03-03T05:36:00.670Z,2.73
2019-03-03T05:38:30.614Z,3.40
2019-03-03T05:40:59.788Z,3.30
2019-03-03T05:43:28.995Z,3.40
2019-03-03T05:45:58.208Z,3.27
2019-03-03T05:48:27.390Z,4.10
2019-03-03T05:50:56.670Z,3.50
2019-03-03T05:53:25.975Z,3.60
2019-03-03T05:55:55.253Z,2.77
2019-03-03T05:58:24.660Z,3.13
2019-03-03T06:00:53.757Z,3.07
2019-03-03T06:03:23.170Z,3.10
2019-03-03T06:05:52.519Z,3.30
2019-03-03T06:08:21.749Z,3.27
2019-03-03T06:10:51.052Z,3.40
2019-03-03T06:13:20.308Z,3.30
2019-03-03T06:15:49.624Z,3.77
2019-03-03T06:18:18.840Z,3.33
2019-03-03T06:20:48.051Z,2.93
2019-03-03T06:23:17.300Z,3.80
2019-03-03T06:25:46.503Z,3.37
2019-03-03T06:28:15.673Z,3.83
2019-03-03T06:30:47.687Z,3.90
2019-03-03T06:33:16.884Z,4.13
2019-03-03T06:35:46.008Z,3.50
2019-03-03T06:38:15.514Z,3.60
2019-03-03T06:40:44.711Z,3.33
2019-03-03T06:43:13.968Z,3.13
2019-03-03T06:45:43.228Z,3.47
2019-03-03T06:48:12.697Z,3.90
2019-03-03T06:50:41.973Z,3.93
2019-03-03T06:53:11.219Z,4.07
2019-03-03T06:55:40.571Z,4.47
2019-03-03T06:58:10.073Z,4.17
2019-03-03T07:00:39.296Z,3.93
2019-03-03T07:03:08.581Z,4.00
2019-03-03T07:05:38.191Z,3.33
2019-03-03T07:08:07.538Z,4.23
2019-03-03T07:10:37.379Z,3.13
2019-03-03T07:13:06.669Z,3.70
2019-03-03T07:15:36.718Z,4.00
2019-03-03T07:18:06.155Z,3.70
2019-03-03T07:20:35.479Z,3.30
2019-03-03T07:23:06.918Z,3.60
2019-03-03T07:25:36.294Z,3.57
2019-03-03T07:28:05.587Z,4.17
2019-03-03T07:30:37.551Z,3.70
2019-03-03T07:33:14.913Z,3.10
2019-03-03T07:35:46.002Z,3.60
2019-03-03T07:38:15.328Z,3.63
2019-03-03T07:40:44.602Z,3.37
2019-03-03T07:43:13.859Z,6.17
2019-03-03T07:45:43.217Z,4.37
2019-03-03T07:48:12.382Z,4.03
2019-03-03T07:50:41.794Z,3.63
2019-03-03T07:53:13.489Z,3.70
2019-03-03T07:55:45.876Z,3.33
2019-03-03T07:58:15.376Z,3.47
2019-03-03T08:00:45.599Z,3.13
2019-03-03T08:03:15.248Z,3.07
2019-03-03T08:05:44.691Z,3.27
2019-03-03T08:08:16.897Z,4.20
2019-03-03T08:10:46.290Z,3.57
2019-03-03T08:13:15.574Z,3.37
2019-03-03T08:15:44.834Z,3.10
2019-03-03T08:18:14.137Z,3.00
2019-03-03T08:20:43.366Z,2.60
2019-03-03T08:23:12.552Z,2.43
2019-03-03T08:25:41.747Z,2.87
2019-03-03T08:28:13.738Z,2.70
2019-03-03T08:30:43.234Z,3.17
2019-03-03T08:33:12.438Z,2.60
2019-03-03T08:35:41.621Z,2.77
2019-03-03T08:38:11.029Z,2.50
2019-03-03T08:40:40.384Z,3.10
2019-03-03T08:43:28.573Z,2.77
2019-03-03T08:46:28.502Z,3.30
2019-03-03T08:49:19.506Z,3.17
2019-03-03T08:52:11.516Z,3.30
2019-03-03T08:54:55.154Z,3.23
2019-03-03T08:57:39.303Z,3.73
2019-03-03T09:00:30.875Z,3.50
2019-03-03T09:03:13.235Z,3.10
2019-03-03T09:05:52.029Z,3.17
2019-03-03T09:08:45.534Z,3.07
2019-03-03T09:11:32.313Z,2.27
2019-03-03T09:14:44.889Z,2.90
2019-03-03T09:17:32.929Z,2.70
2019-03-03T09:20:30.059Z,2.93
2019-03-03T09:23:21.029Z,2.40
2019-03-03T09:26:24.112Z,2.47
2019-03-03T09:29:02.807Z,2.70
2019-03-03T09:31:57.596Z,2.97
2019-03-03T09:34:44.491Z,2.90
2019-03-03T09:37:19.215Z,2.77
2019-03-03T09:40:09.348Z,3.10
2019-03-03T09:42:45.979Z,3.03
2019-03-03T09:45:40.010Z,2.77
2019-03-03T09:48:28.160Z,2.77
2019-03-03T09:51:09.870Z,2.37
2019-03-03T09:54:01.008Z,2.27
2019-03-03T09:56:47.982Z,3.00
2019-03-03T09:59:48.411Z,2.50
2019-03-03T10:02:30.143Z,2.43
2019-03-03T10:05:15.609Z,2.27
2019-03-03T10:07:59.035Z,2.83
2019-03-03T10:10:37.631Z,2.73
2019-03-03T10:13:16.967Z,2.63
2019-03-03T10:16:14.238Z,2.07
2019-03-03T10:18:54.393Z,2.53
2019-03-03T10:21:41.011Z,2.40
2019-03-03T10:24:37.677Z,2.43
2019-03-03T10:27:29.281Z,2.57
2019-03-03T10:30:22.567Z,2.20
2019-03-03T10:33:11.221Z,2.67
2019-03-03T10:36:08.792Z,2.07
2019-03-03T10:39:06.220Z,2.30
2019-03-03T10:41:55.802Z,2.93
2019-03-03T10:44:50.044Z,2.07
2019-03-03T10:47:47.748Z,1.77
2019-03-03T10:50:39.575Z,2.00
2019-03-03T10:53:28.574Z,1.57
2019-03-03T10:56:14.490Z,2.00
2019-03-03T10:59:01.307Z,1.87
2019-03-03T11:01:41.618Z,6.33
2019-03-03T11:04:30.047Z,1.70
2019-03-03T11:07:17.263Z,1.20
2019-03-03T11:10:04.380Z,1.40
2019-03-03T11:12:53.802Z,1.43
2019-03-03T11:15:47.980Z,1.67
2019-03-03T11:18:37.370Z,1.60
2019-03-03T11:21:28.487Z,1.60
2019-03-03T11:24:13.786Z,1.60
2019-03-03T11:27:01.300Z,1.50
2019-03-03T11:29:49.216Z,1.80
2019-03-03T11:32:28.508Z,1.83
2019-03-03T11:35:21.055Z,1.60
2019-03-03T11:38:06.544Z,1.50
2019-03-03T11:41:01.397Z,1.40
2019-03-03T11:43:47.830Z,1.30
2019-03-03T11:46:42.399Z,1.50
2019-03-03T11:49:29.260Z,1.33
2019-03-03T11:52:16.828Z,1.57
2019-03-03T11:55:08.080Z,1.60
2019-03-03T11:58:03.273Z,1.73
2019-03-03T12:00:52.003Z,1.37
2019-03-03T12:03:38.859Z,1.90
2019-03-03T12:06:16.242Z,1.50
2019-03-03T12:09:08.176Z,1.53
2019-03-03T12:11:59.179Z,1.50
2019-03-03T12:14:53.754Z,1.60
2019-03-03T12:17:41.102Z,1.60
2019-03-03T12:20:32.912Z,1.43
2019-03-03T12:23:30.220Z,1.30
2019-03-03T12:26:18.527Z,1.47
2019-03-03T12:29:11.679Z,1.40
2019-03-03T12:31:58.856Z,1.43
2019-03-03T12:34:53.237Z,1.50
2019-03-03T12:37:31.486Z,1.77
2019-03-03T12:40:19.717Z,1.47
2019-03-03T12:43:06.414Z,1.27
2019-03-03T12:45:54.796Z,1.80
2019-03-03T12:48:58.015Z,2.30
2019-03-03T12:51:49.694Z,3.43
2019-03-03T12:54:28.905Z,2.97
2019-03-03T12:57:06.863Z,3.17
2019-03-03T12:59:53.596Z,2.97
2019-03-03T13:02:42.321Z,5.17
2019-03-03T13:05:31.702Z,2.60
2019-03-03T13:08:23.611Z,2.20
2019-03-03T13:11:10.556Z,2.13
2019-03-03T13:14:06.910Z,2.30
2019-03-03T13:16:57.942Z,2.00
2019-03-03T13:19:38.451Z,2.40
2019-03-03T13:22:31.956Z,2.03
2019-03-03T13:25:20.382Z,2.40
2019-03-03T13:28:07.229Z,2.30
2019-03-03T13:30:55.687Z,2.63
2019-03-03T13:33:42.289Z,2.60
2019-03-03T13:36:29.484Z,2.03
2019-03-03T13:39:20.716Z,2.50
2019-03-03T13:42:03.916Z,2.40
2019-03-03T13:44:33.140Z,2.10
2019-03-03T13:47:04.884Z,2.90
2019-03-03T13:49:35.134Z,2.90
2019-03-03T13:52:05.261Z,2.40
2019-03-03T13:54:35.257Z,2.87
2019-03-03T13:57:05.406Z,3.63
2019-03-03T13:59:35.823Z,3.10
2019-03-03T14:02:06.088Z,2.93
2019-03-03T14:04:35.940Z,3.17
2019-03-03T14:07:06.194Z,4.53
2019-03-03T14:09:35.851Z,3.13
2019-03-03T14:12:05.619Z,3.80
2019-03-03T14:14:35.238Z,3.17
2019-03-03T14:17:06.259Z,3.87
2019-03-03T14:19:35.794Z,3.47
2019-03-03T14:22:05.715Z,3.30
2019-03-03T14:24:37.151Z,3.33
2019-03-03T14:27:10.525Z,3.40
2019-03-03T14:29:38.235Z,3.30
2019-03-03T14:32:08.454Z,2.80
2019-03-03T14:34:38.717Z,2.93
2019-03-03T14:37:08.013Z,3.50
2019-03-03T14:39:39.330Z,3.67
2019-03-03T14:42:08.801Z,3.17
2019-03-03T14:44:38.428Z,3.83
2019-03-03T14:47:08.075Z,3.20
2019-03-03T14:49:37.988Z,4.93
2019-03-03T14:52:07.075Z,3.20
2019-03-03T14:54:36.737Z,3.53
2019-03-03T14:57:05.970Z,3.77
2019-03-03T14:59:35.525Z,3.60
2019-03-03T15:02:07.773Z,4.17
2019-03-03T15:04:38.869Z,4.07
2019-03-03T15:07:11.133Z,3.43
2019-03-03T15:09:42.583Z,3.87
2019-03-03T15:12:11.998Z,3.53
2019-03-03T15:14:41.243Z,3.90
2019-03-03T15:17:10.421Z,3.50
2019-03-03T15:19:40.108Z,3.37
2019-03-03T15:22:09.827Z,4.07
2019-03-03T15:24:39.069Z,4.23
2019-03-03T15:27:10.330Z,4.23
2019-03-03T15:29:39.521Z,3.63
2019-03-03T15:32:08.805Z,4.10
2019-03-03T15:34:38.554Z,4.23
2019-03-03T15:37:11.850Z,4.50
2019-03-03T15:39:42.260Z,4.40
2019-03-03T15:42:11.545Z,3.23
2019-03-03T15:44:40.734Z,4.00
2019-03-03T15:47:10.318Z,4.10
2019-03-03T15:49:40.988Z,4.10
2019-03-03T15:52:15.700Z,4.50
2019-03-03T15:54:45.591Z,4.20
2019-03-03T15:57:14.927Z,4.37
2019-03-03T15:59:44.341Z,4.10
2019-03-03T16:02:15.168Z,3.37
2019-03-03T16:04:44.660Z,4.40
2019-03-03T16:07:13.876Z,4.10
2019-03-03T16:09:43.174Z,3.83
2019-03-03T16:12:12.432Z,4.07
2019-03-03T16:14:43.007Z,4.27
2019-03-03T16:17:12.714Z,4.90
2019-03-03T16:19:44.201Z,4.97
2019-03-03T16:22:13.645Z,3.17
2019-03-03T16:24:42.835Z,4.97
2019-03-03T16:27:12.073Z,4.30
2019-03-03T16:29:41.290Z,4.23
2019-03-03T16:32:10.843Z,3.87
2019-03-03T16:34:59.135Z,4.00
2019-03-03T16:37:28.471Z,4.80
2019-03-03T16:39:57.650Z,4.23
2019-03-03T16:42:26.998Z,3.70
2019-03-03T16:44:57.138Z,3.40
2019-03-03T16:47:29.084Z,3.37
2019-03-03T16:50:00.866Z,3.97
2019-03-03T16:52:29.935Z,4.13
2019-03-03T16:54:59.170Z,4.23
2019-03-03T16:57:28.485Z,3.03
2019-03-03T16:59:57.653Z,3.57
2019-03-03T17:02:27.146Z,3.30
2019-03-03T17:04:56.678Z,3.43
2019-03-03T17:07:25.938Z,3.97
2019-03-03T17:09:55.197Z,3.80
2019-03-03T17:12:27.471Z,3.83
2019-03-03T17:14:59.724Z,3.43
2019-03-03T17:17:29.224Z,4.50
2019-03-03T17:19:58.385Z,4.10
2019-03-03T17:22:27.587Z,4.00
2019-03-03T17:24:57.276Z,7.60
2019-03-03T17:27:26.468Z,3.83
2019-03-03T17:29:55.654Z,3.80
2019-03-03T17:32:25.110Z,3.70
2019-03-03T17:34:54.353Z,4.20
2019-03-03T17:37:23.568Z,4.30
2019-03-03T17:39:52.838Z,4.13
2019-03-03T17:42:22.046Z,4.20
2019-03-03T17:44:51.165Z,5.33
2019-03-03T17:47:20.510Z,4.63
2019-03-03T17:49:49.703Z,4.90
2019-03-03T17:52:18.906Z,4.10
2019-03-03T17:54:48.068Z,3.63
2019-03-03T17:57:17.301Z,3.83
2019-03-03T17:59:46.520Z,4.83
2019-03-03T18:02:15.813Z,5.13
2019-03-03T18:04:44.987Z,3.67
2019-03-03T18:07:14.284Z,4.50
2019-03-03T18:09:43.500Z,4.90
2019-03-03T18:12:12.710Z,5.07
2019-03-03T18:14:42.003Z,5.23
2019-03-03T18:17:11.208Z,4.47
2019-03-03T18:19:40.348Z,4.23
2019-03-03T18:22:10.020Z,4.23
2019-03-03T18:24:39.594Z,4.80
2019-03-03T18:27:08.739Z,3.30
2019-03-03T18:29:41.126Z,4.23
2019-03-03T18:32:10.417Z,4.70
2019-03-03T18:34:39.688Z,4.37
2019-03-03T18:37:08.887Z,3.83
2019-03-03T18:39:38.310Z,3.90
2019-03-03T18:42:07.570Z,4.20
2019-03-03T18:44:36.951Z,5.80
2019-03-03T18:47:06.201Z,6.00
2019-03-03T18:49:35.492Z,4.40
2019-03-03T18:52:04.751Z,4.73
2019-03-03T18:54:35.420Z,4.57
2019-03-03T18:57:05.098Z,4.13
2019-03-03T18:59:34.504Z,4.00
2019-03-03T19:02:03.757Z,4.30
2019-03-03T19:04:33.252Z,3.60
2019-03-03T19:07:02.447Z,4.07
2019-03-03T19:09:31.712Z,7.77
2019-03-03T19:12:01.314Z,4.10
2019-03-03T19:14:30.531Z,4.07
2019-03-03T19:16:59.966Z,4.30
2019-03-03T19:19:29.180Z,4.97
2019-03-03T19:21:58.957Z,3.70
2019-03-03T19:24:29.281Z,3.77
2019-03-03T19:26:58.704Z,4.07
2019-03-03T19:29:29.842Z,4.50
2019-03-03T19:31:59.063Z,3.83
2019-03-03T19:34:28.223Z,4.37
2019-03-03T19:36:57.430Z,4.43
2019-03-03T19:39:26.948Z,4.63
2019-03-03T19:41:56.188Z,4.20
2019-03-03T19:44:25.622Z,4.60
2019-03-03T19:46:54.804Z,4.80
2019-03-03T19:49:24.020Z,5.03
2019-03-03T19:51:56.071Z,4.47
2019-03-03T19:54:25.454Z,3.97
2019-03-03T19:56:54.586Z,4.10
2019-03-03T19:59:24.434Z,3.77
2019-03-03T20:01:53.692Z,3.83
2019-03-03T20:04:22.975Z,3.53
2019-03-03T20:06:52.360Z,3.50
2019-03-03T20:09:21.647Z,3.90
2019-03-03T20:11:50.935Z,3.57
2019-03-03T20:14:20.301Z,3.83
2019-03-03T20:16:51.271Z,3.20
2019-03-03T20:19:20.441Z,3.63
2019-03-03T20:21:50.711Z,3.37
2019-03-03T20:24:20.077Z,2.77
2019-03-03T20:26:49.319Z,3.37
2019-03-03T20:29:18.637Z,3.00
2019-03-03T20:31:47.954Z,3.00
2019-03-03T20:34:17.163Z,2.80
2019-03-03T20:36:49.155Z,3.07
2019-03-03T20:39:19.022Z,2.93
2019-03-03T20:41:50.240Z,2.90
2019-03-03T20:44:21.527Z,2.83
2019-03-03T20:46:52.058Z,2.60
2019-03-03T20:49:24.449Z,2.80
2019-03-03T20:51:56.892Z,2.93
2019-03-03T20:54:27.356Z,2.90
2019-03-03T20:56:58.504Z,2.97
2019-03-03T20:59:30.150Z,2.80
2019-03-03T21:02:01.123Z,2.93
2019-03-03T21:04:34.530Z,2.80
2019-03-03T21:07:04.740Z,2.60
2019-03-03T21:09:36.090Z,2.23
2019-03-03T21:12:06.513Z,2.60
2019-03-03T21:14:37.748Z,2.47
2019-03-03T21:17:08.098Z,3.10
2019-03-03T21:19:37.901Z,3.10
2019-03-03T21:22:07.480Z,2.70
2019-03-03T21:24:36.770Z,2.73
2019-03-03T21:27:05.963Z,2.77
2019-03-03T21:29:35.368Z,2.60
2019-03-03T21:32:04.594Z,3.00
2019-03-03T21:34:33.985Z,3.07
2019-03-03T21:37:03.738Z,2.70
2019-03-03T21:42:03.639Z,3.20
2019-03-03T21:44:32.957Z,3.67
2019-03-03T21:47:02.484Z,3.77
2019-03-03T21:49:31.729Z,3.77
2019-03-03T21:52:01.323Z,3.10
2019-03-03T21:54:30.719Z,3.00
2019-03-03T21:56:59.878Z,3.20
2019-03-03T21:59:29.461Z,2.90
2019-03-03T22:01:58.749Z,3.00
2019-03-03T22:04:27.930Z,3.17
2019-03-03T22:06:57.222Z,2.70
2019-03-03T22:09:26.805Z,3.43
2019-03-03T22:11:56.023Z,3.37
2019-03-03T22:14:25.566Z,3.70
2019-03-03T22:16:57.882Z,3.20
2019-03-03T22:19:27.227Z,3.67
2019-03-03T22:21:56.634Z,3.57
2019-03-03T22:24:26.101Z,2.97
2019-03-03T22:26:55.495Z,3.30
2019-03-03T22:29:25.006Z,3.00
2019-03-03T22:31:54.505Z,3.10
2019-03-03T22:34:23.887Z,2.90
2019-03-03T22:36:53.458Z,2.70
2019-03-03T22:39:23.183Z,2.40
2019-03-03T22:41:52.579Z,2.70
2019-03-03T22:44:22.199Z,2.50
2019-03-03T22:46:51.348Z,2.50
2019-03-03T22:49:20.805Z,2.40
2019-03-03T22:51:51.042Z,2.80
2019-03-03T22:54:20.543Z,2.63
2019-03-03T22:56:50.023Z,2.77
2019-03-03T22:59:19.321Z,2.47
2019-03-03T23:01:48.517Z,2.90
2019-03-03T23:04:51.475Z,2.77
2019-03-03T23:08:06.177Z,2.70
2019-03-03T23:11:22.209Z,2.37
2019-03-03T23:14:41.559Z,3.10
2019-03-03T23:17:58.019Z,2.60
2019-03-03T23:21:02.476Z,2.57
2019-03-03T23:24:01.640Z,2.93
2019-03-03T23:26:30.931Z,2.57
2019-03-03T23:29:00.179Z,2.67
2019-03-03T23:31:29.426Z,2.83
2019-03-03T23:34:00.907Z,2.80
2019-03-03T23:36:30.389Z,2.67
2019-03-03T23:38:59.582Z,2.70
2019-03-03T23:41:28.731Z,2.60
2019-03-03T23:43:57.891Z,2.67
2019-03-03T23:46:27.667Z,2.20
2019-03-03T23:48:57.202Z,2.70
2019-03-03T23:51:26.372Z,2.40
2019-03-03T23:53:55.567Z,2.70
2019-03-03T23:56:25.308Z,2.87
2019-03-03T23:58:55.034Z,2.30
